Time;durP1;ratioP1;P1;durP2;ratioP2;P2;SDS_P1;SDS_P2;PMS_P1;PMS_P2;Temp;Humidity;BMP_temperature;BMP_pressure;BME280_temperature;BME280_humidity;BME280_pressure;Samples;Min_cycle;Max_cycle;Signal;HPM_P1;HPM_P2
2021/04/30 00:00:49;;;;;;;8.23;3.15;;;;;;;4.89;72.35;101119.72;4978232;28;20272;-68
2021/04/30 00:03:15;;;;;;;8.05;2.70;;;;;;;4.76;72.52;101116.16;4998205;28;20022;-68
2021/04/30 00:05:40;;;;;;;7.50;2.85;;;;;;;4.69;73.27;101112.66;4954782;28;20130;-68
2021/04/30 00:08:06;;;;;;;6.07;2.70;;;;;;;4.64;73.04;101118.66;4981255;28;20033;-68
2021/04/30 00:10:32;;;;;;;8.48;2.80;;;;;;;4.54;73.39;101111.69;4982940;28;20061;-68
2021/04/30 00:12:58;;;;;;;6.82;2.70;;;;;;;4.42;72.69;101108.13;4982269;28;20026;-68
2021/04/30 00:15:23;;;;;;;6.38;2.97;;;;;;;4.39;73.52;101108.09;4996722;28;20042;-68
2021/04/30 00:17:49;;;;;;;7.20;2.65;;;;;;;4.36;73.82;101105.50;4982998;28;20019;-68
2021/04/30 00:20:15;;;;;;;5.85;2.70;;;;;;;4.32;73.60;101108.91;4998374;28;20018;-67
2021/04/30 00:22:41;;;;;;;6.22;2.63;;;;;;;4.18;73.96;101101.88;4980900;28;20058;-68
2021/04/30 00:25:07;;;;;;;5.90;2.75;;;;;;;4.06;74.24;101108.66;4982034;28;20057;-68
2021/04/30 00:27:33;;;;;;;5.60;2.53;;;;;;;3.95;74.05;101104.19;4997880;28;20030;-69
2021/04/30 00:29:58;;;;;;;6.43;2.67;;;;;;;3.86;75.12;101103.28;4980370;28;20132;-67
2021/04/30 00:32:24;;;;;;;6.50;2.70;;;;;;;3.75;75.39;101094.53;4965301;28;20038;-68
2021/04/30 00:34:49;;;;;;;6.82;2.58;;;;;;;3.86;74.07;101105.84;4998507;28;20026;-68
2021/04/30 00:37:15;;;;;;;6.38;2.58;;;;;;;3.84;74.50;101107.53;4997753;28;20045;-70
2021/04/30 00:39:41;;;;;;;7.35;2.90;;;;;;;3.81;74.15;101101.50;4998872;28;20026;-70
2021/04/30 00:42:06;;;;;;;5.60;2.33;;;;;;;3.84;74.10;101107.53;4996613;28;20113;-67
2021/04/30 00:44:32;;;;;;;5.90;2.92;;;;;;;3.71;75.16;101105.69;4997800;28;20537;-68
2021/04/30 00:46:58;;;;;;;5.32;2.40;;;;;;;3.82;73.76;101104.09;4997458;28;20120;-70
2021/04/30 00:49:23;;;;;;;5.47;2.45;;;;;;;3.76;74.17;101098.84;4971917;28;20034;-70
2021/04/30 00:51:49;;;;;;;6.40;2.45;;;;;;;3.70;74.43;101103.06;4997801;28;20036;-69
2021/04/30 00:54:15;;;;;;;7.88;2.92;;;;;;;3.73;74.61;101098.81;4995688;28;20185;-68
2021/04/30 00:56:40;;;;;;;7.25;2.80;;;;;;;3.62;75.76;101101.25;4983163;28;20038;-68
2021/04/30 00:59:06;;;;;;;6.25;3.08;;;;;;;3.62;75.84;101105.56;4997306;28;20037;-67
2021/04/30 01:01:33;;;;;;;7.93;2.95;;;;;;;3.54;75.95;101094.25;4997981;28;20127;-68
2021/04/30 01:03:58;;;;;;;6.50;2.45;;;;;;;3.56;75.99;101105.50;4978897;28;20785;-69
2021/04/30 01:06:24;;;;;;;7.22;2.60;;;;;;;3.51;75.92;101099.41;4982505;28;20034;-68
2021/04/30 01:08:49;;;;;;;7.35;2.60;;;;;;;3.53;75.94;101100.28;4982514;28;20088;-68
2021/04/30 01:11:16;;;;;;;6.05;2.53;;;;;;;3.49;75.92;101093.34;4997156;28;20129;-67
2021/04/30 01:13:41;;;;;;;7.20;2.97;;;;;;;3.47;75.87;101095.06;4956022;28;20023;-69
2021/04/30 01:16:07;;;;;;;6.43;2.38;;;;;;;3.44;75.90;101095.00;4978886;28;20037;-69
2021/04/30 01:18:43;;;;;;;6.13;2.55;;;;;;;3.42;76.19;101107.03;4983612;28;20118;-70
2021/04/30 01:21:09;;;;;;;9.07;2.92;;;;;;;3.47;75.77;101098.50;4997996;28;20054;-67
2021/04/30 01:23:44;;;;;;;6.10;2.78;;;;;;;3.66;74.68;101102.19;4980154;28;20026;-68
2021/04/30 01:26:10;;;;;;;7.07;2.70;;;;;;;3.72;74.47;101096.22;4981287;28;20105;-69
2021/04/30 01:28:35;;;;;;;6.22;2.80;;;;;;;3.63;73.97;101091.81;4982982;28;20137;-68
2021/04/30 01:31:01;;;;;;;6.55;2.80;;;;;;;3.45;74.84;101101.88;4981354;28;20113;-67
2021/04/30 01:33:26;;;;;;;6.50;2.70;;;;;;;3.26;75.30;101098.22;4998249;28;20031;-69
2021/04/30 01:35:52;;;;;;;6.13;2.53;;;;;;;3.21;75.28;101098.16;4982338;28;20545;-67
2021/04/30 01:38:18;;;;;;;7.65;2.85;;;;;;;3.17;75.47;101092.94;4983502;28;20033;-67
2021/04/30 01:40:44;;;;;;;7.90;3.05;;;;;;;3.25;76.03;101099.06;4996771;28;20034;-69
2021/04/30 01:43:12;;;;;;;9.40;3.10;;;;;;;3.24;76.47;101099.91;4980255;28;20042;-67
2021/04/30 01:45:40;;;;;;;5.95;2.58;;;;;;;3.17;76.87;101096.38;4973607;28;20417;-70
2021/04/30 01:48:12;;;;;;;5.78;2.50;;;;;;;3.12;76.34;101095.44;4982729;28;20553;-68
2021/04/30 01:50:37;;;;;;;6.55;2.70;;;;;;;3.01;76.60;101094.44;4979619;28;20038;-69
2021/04/30 01:53:07;;;;;;;7.88;2.80;;;;;;;2.99;76.99;101106.41;4994188;28;20025;-67
2021/04/30 01:55:32;;;;;;;8.38;2.75;;;;;;;2.92;77.62;101105.47;4989625;28;20027;-67
2021/04/30 01:57:58;;;;;;;8.23;3.40;;;;;;;2.83;77.97;101101.03;4969816;28;20881;-68
2021/04/30 02:00:26;;;;;;;7.72;3.33;;;;;;;2.83;78.47;101101.03;4990711;28;20030;-69
2021/04/30 02:02:55;;;;;;;8.23;3.60;;;;;;;2.88;78.40;101097.66;4979882;28;20031;-69
2021/04/30 02:05:22;;;;;;;7.50;3.05;;;;;;;3.06;76.36;101103.09;4993382;28;20030;-70
2021/04/30 02:07:48;;;;;;;8.37;3.53;;;;;;;2.89;78.14;101096.81;4979583;28;20175;-68
2021/04/30 02:10:22;;;;;;;11.15;4.53;;;;;;;2.80;79.18;101098.44;4994787;28;20034;-68
2021/04/30 02:12:48;;;;;;;9.70;4.10;;;;;;;2.88;78.00;101097.66;4989675;28;20104;-69
2021/04/30 02:15:18;;;;;;;10.60;4.30;;;;;;;2.80;78.21;101106.16;4988467;28;20018;-70
2021/04/30 02:17:44;;;;;;;11.23;4.25;;;;;;;2.90;77.32;101106.31;4997122;28;20505;-68
2021/04/30 02:20:11;;;;;;;7.68;4.00;;;;;;;3.02;76.22;101103.91;4993524;28;20030;-67
2021/04/30 02:22:38;;;;;;;11.52;4.60;;;;;;;2.86;78.69;101095.94;4996903;28;20780;-68
2021/04/30 02:25:05;;;;;;;11.85;4.65;;;;;;;2.71;80.15;101108.59;4991257;28;20060;-69
2021/04/30 02:27:31;;;;;;;10.83;5.10;;;;;;;2.60;81.18;101110.13;4979708;28;20149;-69
2021/04/30 02:29:57;;;;;;;11.90;5.18;;;;;;;2.55;80.93;101093.72;4963415;28;20788;-70
2021/04/30 02:32:23;;;;;;;10.73;4.97;;;;;;;2.53;81.56;101110.84;4995088;28;20030;-67
2021/04/30 02:34:52;;;;;;;8.98;4.15;;;;;;;2.45;81.72;101108.16;4990984;28;20029;-69
2021/04/30 02:37:18;;;;;;;9.38;4.30;;;;;;;2.43;80.85;101108.97;4973388;28;20034;-68
2021/04/30 02:39:44;;;;;;;9.95;4.72;;;;;;;2.41;80.80;101108.97;4980367;28;20034;-67
2021/04/30 02:42:09;;;;;;;9.80;4.75;;;;;;;2.33;81.08;101103.69;4991858;28;20057;-68
2021/04/30 02:44:35;;;;;;;9.32;4.53;;;;;;;2.27;81.06;101107.84;4995618;28;20478;-69
2021/04/30 02:47:00;;;;;;;10.05;4.28;;;;;;;2.26;81.32;101113.84;4977449;28;20030;-69
2021/04/30 02:49:38;;;;;;;8.85;4.25;;;;;;;2.27;80.98;101113.84;4994888;28;20026;-69
2021/04/30 02:52:07;;;;;;;9.65;4.38;;;;;;;2.24;81.07;101113.81;4995272;28;20041;-70
2021/04/30 02:54:33;;;;;;;9.88;4.40;;;;;;;2.21;81.53;101108.59;4992778;28;20026;-67
2021/04/30 02:56:59;;;;;;;9.27;4.78;;;;;;;2.25;80.90;101115.56;4993950;28;20080;-68
2021/04/30 02:59:25;;;;;;;11.38;4.63;;;;;;;2.24;81.57;101112.97;4992514;28;20053;-68
2021/04/30 03:01:50;;;;;;;10.40;4.63;;;;;;;2.15;82.23;101103.34;4995882;28;20034;-69
2021/04/30 03:04:16;;;;;;;11.43;5.15;;;;;;;2.15;82.15;101108.50;4975257;28;20398;-70
2021/04/30 03:06:42;;;;;;;10.32;4.50;;;;;;;2.22;81.85;101105.19;4994872;28;20050;-67
2021/04/30 03:09:07;;;;;;;9.63;4.90;;;;;;;2.15;80.84;101100.78;4993958;28;20149;-68
2021/04/30 03:11:32;;;;;;;9.57;4.40;;;;;;;2.21;80.33;101108.59;4994615;28;20509;-68
2021/04/30 03:13:58;;;;;;;9.23;3.90;;;;;;;2.21;79.71;101098.31;4980782;28;20033;-69
2021/04/30 03:16:24;;;;;;;9.63;4.32;;;;;;;2.14;79.94;101104.19;4994136;28;20030;-68
2021/04/30 03:18:49;;;;;;;12.82;3.78;;;;;;;2.20;79.59;101106.00;4977580;28;20058;-68
2021/04/30 03:21:15;;;;;;;8.63;3.72;;;;;;;2.23;79.46;101106.03;4996757;28;20069;-70
2021/04/30 03:23:40;;;;;;;9.48;4.35;;;;;;;2.27;79.30;101107.84;4976140;28;20026;-67
2021/04/30 03:26:06;;;;;;;8.40;3.50;;;;;;;2.29;78.82;101101.88;4986492;28;20084;-70
2021/04/30 03:28:31;;;;;;;7.60;3.70;;;;;;;2.26;78.81;101094.09;4981420;28;20134;-69
2021/04/30 03:30:57;;;;;;;9.20;3.78;;;;;;;2.28;78.70;101100.16;4980280;28;20037;-68
2021/04/30 03:33:22;;;;;;;8.38;4.00;;;;;;;2.23;78.64;101083.75;4989415;28;20029;-68
2021/04/30 03:35:48;;;;;;;10.55;4.45;;;;;;;2.25;78.42;101089.78;4979930;28;20501;-69
2021/04/30 03:38:13;;;;;;;8.25;3.63;;;;;;;2.18;78.74;101085.38;4996255;28;20113;-68
2021/04/30 03:40:39;;;;;;;8.55;3.22;;;;;;;2.23;78.37;101085.44;4981392;28;20116;-69
2021/04/30 03:43:05;;;;;;;8.85;3.63;;;;;;;2.20;78.34;101093.13;4981139;28;20124;-69
2021/04/30 03:45:30;;;;;;;9.10;3.25;;;;;;;2.34;78.06;101086.50;4977105;28;20029;-67
2021/04/30 03:47:56;;;;;;;7.90;3.33;;;;;;;2.33;78.31;101077.91;4997096;28;20042;-69
2021/04/30 03:50:21;;;;;;;11.85;3.67;;;;;;;2.43;77.85;101083.19;4979002;28;20068;-69
2021/04/30 03:52:47;;;;;;;7.95;3.67;;;;;;;2.47;78.39;101074.69;4972243;28;20085;-69
2021/04/30 03:55:12;;;;;;;7.28;3.20;;;;;;;2.57;77.68;101077.44;4975298;28;20033;-67
2021/04/30 03:57:38;;;;;;;8.05;3.78;;;;;;;2.59;77.74;101080.91;4995594;28;20092;-69
2021/04/30 04:00:04;;;;;;;7.28;3.30;;;;;;;2.53;77.38;101074.78;4996742;28;20073;-68
2021/04/30 04:02:30;;;;;;;13.98;4.50;;;;;;;2.44;77.64;101074.66;4979621;28;20080;-68
2021/04/30 04:04:56;;;;;;;9.85;4.10;;;;;;;2.33;78.19;101083.06;4980236;28;20034;-70
2021/04/30 04:07:21;;;;;;;8.20;3.58;;;;;;;2.42;77.98;101078.88;4982091;28;20096;-67
2021/04/30 04:09:46;;;;;;;10.27;4.25;;;;;;;2.29;78.14;101081.28;4999914;28;20034;-67
2021/04/30 04:12:12;;;;;;;8.32;3.70;;;;;;;2.17;78.42;101081.03;4982047;28;20037;-67
2021/04/30 04:14:38;;;;;;;9.13;4.20;;;;;;;2.02;79.46;101083.34;4985186;28;20122;-68
2021/04/30 04:17:03;;;;;;;9.13;3.75;;;;;;;1.95;79.52;101078.94;4996932;28;20026;-68
2021/04/30 04:19:48;;;;;;;7.92;3.13;;;;;;;1.92;79.12;101076.28;2153727;28;10022912;-67
2021/04/30 04:22:15;;;;;;;9.30;3.88;;;;;;;1.91;79.55;101079.72;3606779;28;10001305;-68
2021/04/30 04:24:41;;;;;;;9.90;4.40;;;;;;;1.83;80.05;101068.44;4997183;28;20030;-67
2021/04/30 04:27:07;;;;;;;10.82;3.88;;;;;;;1.89;80.14;101083.97;4977674;28;20455;-69
2021/04/30 04:29:33;;;;;;;10.20;3.97;;;;;;;1.77;80.12;101077.78;4979170;28;20534;-70
2021/04/30 04:31:59;;;;;;;9.38;3.83;;;;;;;1.76;80.15;101080.28;4981837;28;20092;-70
2021/04/30 04:34:24;;;;;;;8.48;3.80;;;;;;;1.83;80.09;101089.03;4956245;28;20551;-68
2021/04/30 04:36:50;;;;;;;9.07;3.95;;;;;;;1.83;80.27;101084.75;4993612;28;20030;-68
2021/04/30 04:39:15;;;;;;;7.57;3.50;;;;;;;1.90;79.78;101085.72;4973392;28;20169;-67
2021/04/30 04:41:41;;;;;;;9.90;3.72;;;;;;;1.90;79.50;101090.88;4997414;28;20030;-68
2021/04/30 04:44:06;;;;;;;11.50;4.07;;;;;;;1.76;80.32;101083.72;4981794;28;20089;-69
2021/04/30 04:46:33;;;;;;;9.75;4.00;;;;;;;1.75;80.57;101092.31;4999618;28;20030;-68
2021/04/30 04:48:58;;;;;;;10.98;4.40;;;;;;;1.70;80.39;101082.75;4982363;28;20474;-67
2021/04/30 04:51:24;;;;;;;8.15;3.58;;;;;;;1.76;80.55;101094.03;4981849;28;20081;-68
2021/04/30 04:53:49;;;;;;;11.50;4.05;;;;;;;1.74;80.54;101090.56;4982469;28;20026;-69
2021/04/30 04:56:16;;;;;;;8.48;4.50;;;;;;;1.75;81.16;101092.31;4983586;28;20033;-67
2021/04/30 04:58:42;;;;;;;12.83;4.13;;;;;;;1.87;80.93;101103.66;4999149;28;20022;-67
2021/04/30 05:01:08;;;;;;;11.77;3.92;;;;;;;1.97;80.66;101103.00;4982489;28;21073;-67
2021/04/30 05:03:34;;;;;;;8.45;3.60;;;;;;;2.07;80.39;101105.78;4983244;28;20109;-70
2021/04/30 05:05:59;;;;;;;8.77;3.95;;;;;;;2.07;80.25;101099.75;4981182;28;20181;-67
2021/04/30 05:08:25;;;;;;;10.75;3.63;;;;;;;2.11;80.00;101096.41;4999016;28;20567;-67
2021/04/30 05:10:50;;;;;;;9.07;3.60;;;;;;;2.14;79.83;101099.03;4996864;28;20033;-68
2021/04/30 05:13:16;;;;;;;7.93;3.53;;;;;;;2.14;80.12;101104.19;4999444;28;20026;-67
2021/04/30 05:15:41;;;;;;;11.63;4.38;;;;;;;2.19;80.03;101101.72;4998166;28;20057;-69
2021/04/30 05:18:07;;;;;;;9.82;3.85;;;;;;;2.21;79.68;101102.59;4981269;28;20481;-69
2021/04/30 05:20:32;;;;;;;9.07;3.65;;;;;;;2.27;79.40;101105.25;4984416;28;20034;-67
2021/04/30 05:22:59;;;;;;;8.73;3.72;;;;;;;2.31;79.44;101104.50;4998566;28;20855;-69
2021/04/30 05:25:25;;;;;;;11.45;3.90;;;;;;;2.23;79.73;101098.31;4996071;28;20089;-70
2021/04/30 05:27:50;;;;;;;9.45;4.03;;;;;;;2.33;79.21;101101.09;4996948;28;20034;-71
2021/04/30 05:30:16;;;;;;;11.68;4.13;;;;;;;2.34;79.17;101105.41;4981875;28;20486;-68
2021/04/30 05:32:43;;;;;;;10.02;3.95;;;;;;;2.43;78.77;101103.81;4997020;28;20034;-67
2021/04/30 05:35:09;;;;;;;12.15;4.18;;;;;;;2.45;79.12;101108.16;4997470;28;20552;-69
2021/04/30 05:37:36;;;;;;;10.57;4.07;;;;;;;2.49;79.30;101114.25;4981998;28;20026;-70
2021/04/30 05:40:02;;;;;;;9.07;4.30;;;;;;;2.49;79.37;101116.84;4982252;28;20034;-68
2021/04/30 05:42:27;;;;;;;18.42;4.43;;;;;;;2.47;79.61;101121.06;4982336;28;20046;-68
2021/04/30 05:44:53;;;;;;;9.70;3.92;;;;;;;2.62;79.12;101111.03;4995321;28;20030;-69
2021/04/30 05:47:23;;;;;;;10.18;3.95;;;;;;;2.75;79.06;101123.28;4993163;28;20109;-70
2021/04/30 05:49:48;;;;;;;9.50;4.45;;;;;;;2.84;78.85;101123.44;4986040;28;20041;-67
2021/04/30 05:52:14;;;;;;;12.25;4.28;;;;;;;2.93;78.13;101116.66;4980013;28;20022;-70
2021/04/30 05:54:39;;;;;;;11.93;4.57;;;;;;;3.04;77.84;101115.09;4997952;28;20025;-70
2021/04/30 05:57:05;;;;;;;11.40;4.03;;;;;;;3.14;77.57;101124.69;4981553;28;20022;-68
2021/04/30 05:59:30;;;;;;;11.32;4.47;;;;;;;3.16;77.75;101115.28;4997276;28;20022;-67
2021/04/30 06:01:56;;;;;;;11.32;4.40;;;;;;;3.20;77.78;101126.53;4981949;28;20036;-67
2021/04/30 06:04:23;;;;;;;13.70;4.43;;;;;;;3.25;78.23;101119.72;4981237;28;20038;-69
2021/04/30 06:06:50;;;;;;;8.93;4.00;;;;;;;3.42;77.56;101123.38;4980513;28;20551;-69
2021/04/30 06:09:19;;;;;;;11.50;4.28;;;;;;;3.32;77.96;101124.97;4981413;28;20030;-67
2021/04/30 06:11:45;;;;;;;11.73;4.40;;;;;;;3.30;78.22;101120.66;4997858;28;20112;-69
2021/04/30 06:14:11;;;;;;;11.93;4.65;;;;;;;3.35;78.51;101122.44;4978599;28;21773;-70
2021/04/30 06:16:38;;;;;;;13.07;4.80;;;;;;;3.57;78.11;101122.72;4998130;28;20037;-70
2021/04/30 06:19:03;;;;;;;10.70;5.15;;;;;;;3.68;77.87;101123.72;4982301;28;20493;-70
2021/04/30 06:21:29;;;;;;;12.05;4.68;;;;;;;3.73;78.04;101116.03;4980841;28;20132;-69
2021/04/30 06:23:55;;;;;;;10.57;4.75;;;;;;;3.95;77.53;101122.28;4980906;28;20169;-69
2021/04/30 06:26:20;;;;;;;9.70;4.32;;;;;;;3.92;77.53;101104.19;4978851;28;20023;-69
2021/04/30 06:28:46;;;;;;;9.40;4.47;;;;;;;4.27;77.02;101115.75;4993698;28;20026;-69
2021/04/30 06:31:12;;;;;;;8.90;4.05;;;;;;;4.50;76.21;101115.94;4998222;28;20030;-70
2021/04/30 06:33:37;;;;;;;10.90;4.50;;;;;;;4.68;75.12;101120.44;4977765;28;20022;-69
2021/04/30 06:36:03;;;;;;;9.68;4.63;;;;;;;4.84;75.14;101127.44;4978218;28;20073;-69
2021/04/30 06:38:28;;;;;;;11.10;4.82;;;;;;;4.95;74.03;101122.34;4982674;28;20120;-69
2021/04/30 06:40:54;;;;;;;8.40;4.60;;;;;;;4.88;75.31;101126.63;4981641;28;20077;-70
2021/04/30 06:43:20;;;;;;;12.23;4.72;;;;;;;5.12;74.69;101128.53;4993916;28;20145;-69
2021/04/30 06:45:45;;;;;;;11.27;4.55;;;;;;;4.98;75.09;101124.09;4979954;28;20092;-70
2021/04/30 06:48:11;;;;;;;10.13;4.85;;;;;;;5.18;74.69;101122.50;4979125;28;20094;-71
2021/04/30 06:50:36;;;;;;;11.40;4.60;;;;;;;5.26;75.07;101127.72;4995635;28;20038;-70
2021/04/30 06:53:02;;;;;;;11.65;5.00;;;;;;;5.32;75.30;101130.34;4981192;28;20360;-69
2021/04/30 06:55:27;;;;;;;14.70;5.35;;;;;;;5.46;74.85;101119.19;4978805;28;20032;-69
2021/04/30 06:57:53;;;;;;;13.68;5.97;;;;;;;5.57;74.93;101121.84;4980805;28;20026;-69
2021/04/30 07:00:19;;;;;;;10.65;4.70;;;;;;;5.72;75.09;101131.41;4997327;28;20030;-67
2021/04/30 07:02:45;;;;;;;12.25;4.85;;;;;;;5.89;73.76;101129.75;4981077;28;20889;-69
2021/04/30 07:05:11;;;;;;;8.90;4.72;;;;;;;5.98;73.51;101129.81;4979720;28;20042;-69
2021/04/30 07:07:37;;;;;;;10.80;4.50;;;;;;;6.11;73.34;101125.50;4982308;28;20030;-69
2021/04/30 07:10:04;;;;;;;11.13;4.88;;;;;;;6.08;72.78;101130.69;4997017;28;20532;-70
2021/04/30 07:12:29;;;;;;;9.05;4.50;;;;;;;6.26;72.86;101124.69;4978136;28;20030;-69
2021/04/30 07:14:55;;;;;;;9.25;4.88;;;;;;;6.29;72.75;101140.25;4993616;28;20022;-69
2021/04/30 07:17:20;;;;;;;9.68;5.07;;;;;;;6.19;72.98;101138.50;4980527;28;20496;-70
2021/04/30 07:19:46;;;;;;;9.40;4.63;;;;;;;6.14;73.66;101129.84;4977965;28;20610;-70
2021/04/30 07:22:14;;;;;;;11.80;4.57;;;;;;;6.54;72.37;101135.97;4981024;28;20045;-69
2021/04/30 07:24:40;;;;;;;10.00;4.30;;;;;;;6.58;71.57;101132.50;4995366;28;20077;-69
2021/04/30 07:27:06;;;;;;;8.93;4.55;;;;;;;6.48;72.69;101136.81;4978639;28;20034;-70
2021/04/30 07:29:33;;;;;;;9.18;4.22;;;;;;;6.57;72.79;101135.09;4979528;28;20022;-70
2021/04/30 07:31:59;;;;;;;11.00;5.00;;;;;;;6.63;72.79;101140.28;4996168;28;20084;-71
2021/04/30 07:34:25;;;;;;;10.88;5.75;;;;;;;6.91;72.52;101141.16;4995105;28;20126;-69
2021/04/30 07:36:50;;;;;;;9.48;4.55;;;;;;;6.99;73.11;101144.59;4995410;28;20103;-70
2021/04/30 07:39:17;;;;;;;9.57;4.50;;;;;;;7.14;72.26;101151.50;4980142;28;20030;-69
2021/04/30 07:41:42;;;;;;;9.13;4.15;;;;;;;7.08;72.45;101143.72;4963812;28;20067;-70
2021/04/30 07:44:08;;;;;;;8.63;4.03;;;;;;;7.21;71.93;101135.06;4983418;28;20030;-69
2021/04/30 07:46:33;;;;;;;9.75;4.85;;;;;;;7.30;74.15;101150.63;4965382;28;21552;-67
2021/04/30 07:48:59;;;;;;;10.13;4.57;;;;;;;7.39;73.81;101144.53;4985181;28;20033;-67
2021/04/30 07:51:25;;;;;;;7.88;3.75;;;;;;;7.44;70.69;101138.44;4998691;28;20096;-70
2021/04/30 07:53:50;;;;;;;8.73;4.63;;;;;;;7.52;71.07;101146.25;4998852;28;20053;-70
2021/04/30 07:56:15;;;;;;;8.40;4.47;;;;;;;7.65;71.83;101144.44;4984117;28;20038;-67
2021/04/30 07:58:41;;;;;;;9.13;4.60;;;;;;;7.70;71.17;101148.75;4965085;28;20066;-67
2021/04/30 08:01:09;;;;;;;8.15;4.43;;;;;;;7.71;70.43;101144.47;4982164;28;20117;-67
2021/04/30 08:03:34;;;;;;;9.93;4.78;;;;;;;7.76;71.31;101140.09;4984458;28;20053;-67
2021/04/30 08:06:00;;;;;;;12.27;4.70;;;;;;;8.06;70.95;101144.28;4996806;28;20042;-67
2021/04/30 08:08:25;;;;;;;10.50;5.13;;;;;;;8.04;72.00;101136.47;4983167;28;20113;-68
2021/04/30 08:10:51;;;;;;;9.77;4.78;;;;;;;8.21;72.12;101143.31;4980090;28;20040;-67
2021/04/30 08:13:17;;;;;;;12.18;4.60;;;;;;;8.39;70.82;101148.44;4998598;28;20022;-67
2021/04/30 08:15:43;;;;;;;8.73;4.40;;;;;;;8.75;70.16;101142.09;4981490;28;20113;-67
2021/04/30 08:18:08;;;;;;;8.48;4.40;;;;;;;8.73;69.45;101150.81;4980418;28;20581;-67
2021/04/30 08:20:34;;;;;;;9.27;4.22;;;;;;;8.63;69.73;101151.78;4980774;28;20037;-69
2021/04/30 08:22:59;;;;;;;8.02;4.65;;;;;;;8.54;69.60;101150.94;4984212;28;20040;-69
2021/04/30 08:25:25;;;;;;;9.18;4.63;;;;;;;8.72;69.47;101154.31;4982285;28;20029;-67
2021/04/30 08:27:52;;;;;;;8.65;4.97;;;;;;;8.88;68.52;101153.31;4988055;28;20034;-67
2021/04/30 08:30:17;;;;;;;8.90;4.43;;;;;;;9.13;67.05;101147.88;4981846;28;20489;-67
2021/04/30 08:32:43;;;;;;;10.52;4.80;;;;;;;9.16;67.08;101153.03;4996070;28;20027;-67
2021/04/30 08:35:09;;;;;;;8.63;4.18;;;;;;;9.12;66.53;101153.94;4981507;28;20030;-67
2021/04/30 08:37:35;;;;;;;10.02;4.90;;;;;;;8.96;67.60;101151.47;4989503;28;20035;-67
2021/04/30 08:40:01;;;;;;;10.10;4.63;;;;;;;8.54;68.53;101157.91;4984148;28;20037;-67
2021/04/30 08:42:27;;;;;;;11.02;4.40;;;;;;;8.29;69.09;101157.16;4991520;28;20046;-67
2021/04/30 08:44:53;;;;;;;11.48;4.82;;;;;;;8.18;69.51;101153.75;4995642;28;20026;-70
2021/04/30 08:47:20;;;;;;;10.10;5.07;;;;;;;8.21;69.97;101159.81;4996584;28;20030;-67
2021/04/30 08:49:48;;;;;;;9.40;4.78;;;;;;;8.19;70.26;101150.28;4997817;28;20030;-67
2021/04/30 08:52:16;;;;;;;8.45;4.57;;;;;;;8.32;69.95;101162.34;4997583;28;20060;-67
2021/04/30 08:54:41;;;;;;;8.70;4.30;;;;;;;8.47;69.09;101156.22;4994791;28;20026;-67
2021/04/30 08:57:09;;;;;;;8.95;4.70;;;;;;;8.34;69.89;101152.78;4980565;28;20651;-67
2021/04/30 08:59:35;;;;;;;;;;;;;;;8.50;69.28;101162.25;4983154;28;20492;-68
2021/04/30 09:02:01;;;;;;;8.82;4.75;;;;;;;8.58;69.20;101163.06;4996312;28;19913;-67
2021/04/30 09:04:27;;;;;;;11.65;4.57;;;;;;;8.70;69.52;101161.25;4981112;28;20612;-68
2021/04/30 09:06:53;;;;;;;13.52;5.68;;;;;;;8.56;73.20;101172.63;4990204;28;20037;-67
2021/04/30 09:09:20;;;;;;;6.53;2.38;;;;;;;8.15;71.95;101166.78;4994353;28;20050;-67
2021/04/30 09:11:49;;;;;;;6.78;2.35;;;;;;;7.96;70.07;101169.47;4978369;28;20026;-67
2021/04/30 09:14:20;;;;;;;5.90;2.17;;;;;;;7.82;71.22;101173.00;4994428;28;20018;-69
2021/04/30 09:17:09;;;;;;;5.07;1.70;;;;;;;7.47;68.33;101168.78;4981764;28;20048;-66
2021/04/30 09:19:40;;;;;;;5.43;1.30;;;;;;;7.69;63.46;101170.44;4978065;28;20019;-70
2021/04/30 09:22:09;;;;;;;2.90;1.10;;;;;;;7.72;66.95;101179.97;4979867;28;20679;-69
2021/04/30 09:24:36;;;;;;;4.53;1.05;;;;;;;8.00;64.96;101170.31;4979752;28;20038;-67
2021/04/30 09:27:04;;;;;;;3.47;1.27;;;;;;;8.18;66.30;101164.16;4995268;28;20030;-67
2021/04/30 09:29:32;;;;;;;;;;;;;;;8.39;64.10;101176.22;4978698;28;20038;-67
2021/04/30 09:31:59;;;;;;;2.70;1.10;;;;;;;8.21;66.47;101164.13;4979061;28;19952;-67
2021/04/30 09:34:25;;;;;;;3.80;1.40;;;;;;;8.22;69.52;101176.28;4978043;28;20955;-67
2021/04/30 09:37:13;;;;;;;6.03;2.38;;;;;;;7.98;71.29;101185.94;4993902;28;20122;-70
2021/04/30 09:39:49;;;;;;;7.63;3.20;;;;;;;7.89;71.95;101185.97;4978538;28;20019;-67
2021/04/30 09:42:18;;;;;;;7.28;3.20;;;;;;;7.76;72.68;101176.50;4991742;28;20050;-69
2021/04/30 09:44:46;;;;;;;4.90;2.25;;;;;;;7.59;71.71;101183.47;4977724;28;20033;-69
2021/04/30 09:47:28;;;;;;;6.25;2.13;;;;;;;7.43;72.80;101182.63;4978699;28;20037;-70
2021/04/30 09:49:59;;;;;;;5.90;2.30;;;;;;;7.51;72.99;101186.09;4977015;28;20478;-70
2021/04/30 09:52:26;;;;;;;5.30;2.10;;;;;;;7.66;71.72;101186.06;4992228;28;20030;-69
2021/04/30 09:54:52;;;;;;;4.57;2.13;;;;;;;7.87;72.02;101179.91;4994319;28;20050;-69
2021/04/30 09:57:21;;;;;;;5.70;2.13;;;;;;;8.01;72.46;101172.94;4994491;28;20045;-67
2021/04/30 10:00:06;;;;;;;4.20;1.75;;;;;;;8.17;70.00;101173.72;4980783;28;20127;-69
2021/04/30 10:02:35;;;;;;;3.50;1.65;;;;;;;8.17;72.50;101172.84;4981039;28;20037;-69
2021/04/30 10:05:12;;;;;;;4.80;1.50;;;;;;;8.63;68.26;101177.81;4994843;28;20025;-67
2021/04/30 10:07:39;;;;;;;4.03;1.70;;;;;;;8.96;66.92;101176.66;4996102;28;20039;-67
2021/04/30 10:10:11;;;;;;;5.38;1.75;;;;;;;8.89;68.28;101175.84;4994500;28;20026;-69
2021/04/30 10:12:39;;;;;;;4.82;2.20;;;;;;;9.11;70.82;101176.53;4979664;28;20069;-67
2021/04/30 10:15:05;;;;;;;;;;;;;;;9.37;67.99;101171.06;4980270;28;20024;-67
2021/04/30 10:17:31;;;;;;;6.47;2.20;;;;;;;9.26;69.87;101155.53;4979944;28;19913;-70
2021/04/30 10:19:56;;;;;;;4.53;2.00;;;;;;;9.36;68.96;101164.13;4980032;28;20049;-70
2021/04/30 10:22:24;;;;;;;5.53;2.17;;;;;;;9.59;68.73;101172.56;4977989;28;20540;-70
2021/04/30 10:24:55;;;;;;;5.25;2.13;;;;;;;9.49;67.68;101167.47;4991922;28;20022;-67
2021/04/30 10:27:27;;;;;;;5.80;2.13;;;;;;;9.74;66.04;101168.94;4975433;28;20034;-68
2021/04/30 10:30:34;;;;;;;5.55;2.33;;;;;;;9.60;66.26;101170.81;4979291;28;20080;-68
2021/04/30 10:33:18;;;;;;;;;;;;;;;9.94;64.82;101173.91;4967394;28;20121;-67
2021/04/30 10:35:43;;;;;;;6.50;1.98;;;;;;;10.47;62.34;101174.94;4980714;28;19928;-68
2021/04/30 10:38:14;;;;;;;6.50;2.25;;;;;;;11.07;62.50;101169.63;4977883;28;20454;-67
2021/04/30 10:41:02;;;;;;;7.07;2.15;;;;;;;11.65;59.07;101165.94;4995810;28;20544;-67
2021/04/30 10:43:29;;;;;;;6.78;2.13;;;;;;;12.69;56.76;101171.56;4977879;28;20050;-67
2021/04/30 10:45:58;;;;;;;7.00;2.22;;;;;;;14.38;50.89;101156.47;4979499;28;20496;-67
2021/04/30 10:48:24;;;;;;;7.45;2.10;;;;;;;15.24;52.17;101165.91;4980006;28;20041;-68
2021/04/30 10:50:50;;;;;;;4.85;1.77;;;;;;;15.82;46.00;101147.22;4995549;28;20018;-68
2021/04/30 10:53:28;;;;;;;3.67;1.60;;;;;;;15.89;43.87;101153.09;4978274;28;20032;-68
2021/04/30 10:55:55;;;;;;;2.90;1.50;;;;;;;16.83;42.56;101161.72;4996589;28;20394;-68
2021/04/30 10:58:50;;;;;;;5.47;1.42;;;;;;;18.31;38.79;101149.84;4995225;28;20030;-68
2021/04/30 11:01:28;;;;;;;3.55;1.00;;;;;;;19.15;35.54;101144.84;4994776;28;20046;-68
2021/04/30 11:04:08;;;;;;;3.53;1.42;;;;;;;16.39;42.15;101155.56;4992832;28;20939;-68
2021/04/30 11:06:39;;;;;;;5.35;1.38;;;;;;;16.83;37.79;101157.31;4980985;28;20545;-68
2021/04/30 11:09:06;;;;;;;4.38;1.55;;;;;;;17.99;36.92;101153.97;4978182;28;20547;-68
2021/04/30 11:11:36;;;;;;;5.18;1.30;;;;;;;19.55;32.76;101140.13;4992467;28;20031;-68
2021/04/30 11:14:32;;;;;;;3.10;1.50;;;;;;;19.51;35.57;101144.72;4975399;28;20064;-69
2021/04/30 11:16:59;;;;;;;3.20;1.70;;;;;;;18.95;37.35;101150.28;4977219;28;20041;-68
2021/04/30 11:19:26;;;;;;;3.50;1.50;;;;;;;16.67;41.13;101157.94;4984099;28;20090;-68
2021/04/30 11:21:54;;;;;;;3.80;1.38;;;;;;;15.95;41.26;101140.56;4996379;28;20072;-68
2021/04/30 11:24:36;;;;;;;3.25;1.50;;;;;;;15.47;41.97;101151.09;4977042;28;20038;-68
2021/04/30 11:27:11;;;;;;;8.30;2.17;;;;;;;15.03;44.78;101161.38;4984899;28;20030;-68
2021/04/30 11:29:38;;;;;;;5.25;2.05;;;;;;;16.25;40.86;101156.97;4992234;28;20030;-68
2021/04/30 11:32:23;;;;;;;6.45;2.20;;;;;;;19.02;37.87;101149.91;4993196;28;20079;-69